This is the latest recevied weather packets stored in our database for station/object K4MUW-4. If no packets are shown the sender has not sent any weather packets the latest 10 day(s).
| Time | Temp. | Humidity | Pressure | Rain* | Wind** | Luminosity | Snow |
|---|---|---|---|---|---|---|---|
| 1777554916 | 14.44° C | 81% | 1010 hPa | 0 mm | 1.79 m/s, 339° | - | - |
| 1777554616 | 14.44° C | 81% | 1010 hPa | 0 mm | 1.79 m/s, 356° | - | - |
| 1777552513 | 14.44° C | 87% | 1010 hPa | 1.02 mm | 1.79 m/s, 345° | - | - |
| 1777551313 | 15° C | 91% | 1010 hPa | 1.02 mm | 0 m/s | - | - |
| 1777548309 | 15° C | 91% | 1009 hPa | 0 mm | 0 m/s | - | - |
| 1777543687 | 15° C | 89% | 1008 hPa | 0 mm | 0 m/s | - | - |
| 1777543085 | 15° C | 89% | 1008 hPa | 0 mm | 0 m/s | - | - |
| 1777542184 | 15° C | 90% | 1009 hPa | 0 mm | 0 m/s | - | - |
| 1777541585 | 15° C | 90% | 1009 hPa | 0 mm | 0 m/s | - | - |
| 1777541283 | 14.44° C | 90% | 1009 hPa | 0 mm | 0 m/s | - | - |
| 1777540984 | 14.44° C | 90% | 1009 hPa | 0 mm | 0 m/s | - | - |
| 1777540684 | 15° C | 90% | 1009 hPa | 0 mm | 1.34 m/s, 339° | - | - |
| 1777540382 | 15° C | 89% | 1009 hPa | 0 mm | 1.34 m/s, 308° | - | - |
| 1777540082 | 15° C | 88% | 1009 hPa | 0 mm | 1.34 m/s, 308° | - | - |
| 1777539781 | 15° C | 88% | 1009 hPa | 0 mm | 0 m/s | - | - |
| 1777538881 | 15° C | 88% | 1009 hPa | 0 mm | 1.34 m/s, 306° | - | - |
| 1777538581 | 15° C | 88% | 1009 hPa | 0 mm | 1.34 m/s, 303° | - | - |
| 1777538279 | 15° C | 88% | 1009 hPa | 0 mm | 1.79 m/s, 356° | - | - |
| 1777531964 | 17.22° C | 82% | 1009 hPa | 0 mm | 1.34 m/s, 18° | - | - |
| 1777530462 | 18.33° C | 76% | 1009 hPa | 0 mm | 0 m/s | - | - |
| 1777528959 | 18.89° C | 70% | 1010 hPa | 0 mm | 0 m/s | - | - |
| 1777528659 | 19.44° C | 69% | 1010 hPa | 0 mm | 0 m/s | - | - |
| 1777528358 | 19.44° C | 69% | 1010 hPa | 0 mm | 0 m/s | - | - |
| 1777527749 | 19.44° C | 70% | 1009 hPa | 0 mm | 1.79 m/s, 241° | - | - |
| 1777526848 | 20° C | 70% | 1009 hPa | 0 mm | 0 m/s | - | - |
* Rain latest hour (hover to see other rain measurements)
** Current wind speed in m/s (hover to see current wind gust speed)